createdAt,value
2022-11-08T00:00:56.442Z,13.93
2022-11-08T00:03:25.608Z,13.58
2022-11-08T00:06:13.949Z,13.93
2022-11-08T00:09:02.557Z,13.88
2022-11-08T00:11:50.041Z,13.95
2022-11-08T00:14:19.546Z,14.13
2022-11-08T00:16:48.671Z,14.05
2022-11-08T00:19:19.473Z,12.63
2022-11-08T00:21:49.374Z,14.60
2022-11-08T00:24:18.446Z,13.93
2022-11-08T00:26:48.461Z,14.58
2022-11-08T00:29:17.787Z,14.25
2022-11-08T00:31:46.707Z,13.40
2022-11-08T00:34:17.173Z,13.08
2022-11-08T00:36:46.579Z,13.78
2022-11-08T00:39:15.233Z,14.23
2022-11-08T00:41:44.237Z,14.35
2022-11-08T00:44:13.810Z,13.45
2022-11-08T00:46:44.662Z,14.13
2022-11-08T00:49:13.613Z,12.33
2022-11-08T00:51:44.178Z,13.85
2022-11-08T00:54:16.219Z,14.45
2022-11-08T00:56:45.661Z,14.25
2022-11-08T00:59:16.037Z,13.58
2022-11-08T01:01:46.487Z,13.08
2022-11-08T01:04:16.604Z,13.38
2022-11-08T01:06:47.471Z,13.50
2022-11-08T01:09:16.238Z,13.68
2022-11-08T01:11:47.474Z,14.63
2022-11-08T01:14:16.746Z,14.47
2022-11-08T01:16:47.135Z,13.20
2022-11-08T01:19:16.653Z,12.88
2022-11-08T01:21:47.151Z,13.65
2022-11-08T01:24:15.858Z,13.78
2022-11-08T01:26:46.393Z,13.15
2022-11-08T01:29:15.507Z,13.18
2022-11-08T01:31:44.419Z,12.85
2022-11-08T01:34:13.491Z,12.35
2022-11-08T01:36:43.609Z,13.38
2022-11-08T01:39:13.514Z,13.08
2022-11-08T01:41:43.962Z,12.85
2022-11-08T01:44:17.323Z,12.85
2022-11-08T01:46:47.892Z,12.65
2022-11-08T01:49:34.091Z,11.68
2022-11-08T01:52:19.656Z,12.40
2022-11-08T01:55:06.374Z,12.88
2022-11-08T01:57:49.688Z,13.38
2022-11-08T02:00:18.355Z,12.50
2022-11-08T02:02:53.934Z,12.50
2022-11-08T02:05:27.025Z,11.80
2022-11-08T02:08:28.671Z,11.45
2022-11-08T02:10:59.359Z,11.73
2022-11-08T02:13:29.926Z,11.40
2022-11-08T02:15:58.683Z,11.97
2022-11-08T02:18:31.018Z,12.13
2022-11-08T02:21:24.575Z,13.10
2022-11-08T02:23:59.818Z,12.00
2022-11-08T02:26:31.988Z,12.33
2022-11-08T02:29:22.185Z,12.82
2022-11-08T02:31:51.313Z,12.50
2022-11-08T02:34:21.580Z,11.45
2022-11-08T02:36:52.114Z,10.68
2022-11-08T02:39:21.860Z,11.00
2022-11-08T02:41:51.368Z,11.57
2022-11-08T02:44:20.458Z,11.73
2022-11-08T02:46:49.636Z,12.00
2022-11-08T02:49:18.402Z,12.45
2022-11-08T02:51:47.201Z,11.80
2022-11-08T02:54:16.519Z,11.12
2022-11-08T02:56:46.492Z,11.30
2022-11-08T02:59:15.642Z,11.97
2022-11-08T03:01:45.534Z,12.15
2022-11-08T03:04:14.952Z,11.60
2022-11-08T03:06:45.596Z,12.23
2022-11-08T03:09:14.782Z,11.78
2022-11-08T03:11:44.168Z,12.15
2022-11-08T03:14:13.452Z,11.00
2022-11-08T03:16:43.385Z,11.12
2022-11-08T03:19:13.160Z,11.83
2022-11-08T03:21:43.352Z,11.80
2022-11-08T03:24:12.531Z,12.03
2022-11-08T03:26:41.300Z,10.48
2022-11-08T03:29:11.063Z,10.55
2022-11-08T03:31:40.750Z,12.05
2022-11-08T03:34:10.871Z,11.85
2022-11-08T03:36:39.728Z,10.53
2022-11-08T03:39:08.684Z,11.63
2022-11-08T03:41:37.714Z,11.55
2022-11-08T03:44:06.763Z,11.78
2022-11-08T03:46:37.470Z,11.57
2022-11-08T03:49:06.736Z,11.08
2022-11-08T03:51:35.990Z,11.40
2022-11-08T03:54:05.290Z,11.63
2022-11-08T03:56:35.889Z,11.50
2022-11-08T03:59:04.810Z,11.75
2022-11-08T04:01:33.856Z,12.13
2022-11-08T04:04:03.879Z,12.13
2022-11-08T04:06:32.977Z,11.35
2022-11-08T04:09:02.504Z,11.03
2022-11-08T04:11:49.952Z,11.05
2022-11-08T04:14:38.927Z,12.25
2022-11-08T04:17:09.487Z,11.57
2022-11-08T04:19:57.283Z,11.85
2022-11-08T04:22:26.295Z,11.90
2022-11-08T04:24:55.872Z,10.88
2022-11-08T04:27:24.409Z,11.08
2022-11-08T04:29:54.746Z,12.03
2022-11-08T04:32:23.563Z,11.95
2022-11-08T04:34:52.676Z,11.53
2022-11-08T04:37:23.633Z,11.63
2022-11-08T04:39:53.024Z,10.82
2022-11-08T04:42:22.303Z,10.58
2022-11-08T04:44:52.017Z,10.88
2022-11-08T04:47:21.000Z,10.95
2022-11-08T04:49:50.074Z,10.90
2022-11-08T04:52:18.956Z,11.48
2022-11-08T04:54:48.538Z,11.55
2022-11-08T04:57:18.649Z,10.80
2022-11-08T04:59:48.172Z,10.78
2022-11-08T05:02:17.186Z,11.80
2022-11-08T05:04:46.451Z,12.37
2022-11-08T05:07:15.655Z,11.05
2022-11-08T05:09:46.751Z,11.30
2022-11-08T05:12:18.090Z,11.03
2022-11-08T05:14:49.519Z,11.78
2022-11-08T05:17:19.595Z,12.50
2022-11-08T05:20:08.205Z,12.65
2022-11-08T05:22:56.428Z,11.85
2022-11-08T05:25:26.664Z,11.35
2022-11-08T05:27:56.449Z,11.90
2022-11-08T05:30:25.723Z,13.05
2022-11-08T05:32:56.787Z,13.05
2022-11-08T05:35:26.648Z,18.73
2022-11-08T05:37:56.319Z,13.03
2022-11-08T05:40:29.424Z,12.45
2022-11-08T05:42:57.397Z,12.23
2022-11-08T05:45:26.377Z,13.30
2022-11-08T05:47:59.223Z,11.93
2022-11-08T05:50:28.992Z,13.00
2022-11-08T05:52:59.939Z,14.33
2022-11-08T05:55:30.255Z,12.73
2022-11-08T05:57:59.453Z,12.78
2022-11-08T06:00:29.653Z,13.35
2022-11-08T06:02:58.890Z,13.15
2022-11-08T06:05:28.729Z,13.58
2022-11-08T06:07:57.487Z,13.55
2022-11-08T06:10:27.023Z,12.55
2022-11-08T06:13:01.611Z,12.95
2022-11-08T06:15:31.215Z,13.28
2022-11-08T06:18:04.540Z,16.45
2022-11-08T06:20:33.479Z,12.45
2022-11-08T06:23:02.727Z,14.15
2022-11-08T06:25:31.928Z,13.62
2022-11-08T06:28:01.813Z,13.85
2022-11-08T06:30:30.938Z,13.83
2022-11-08T06:33:00.324Z,12.78
2022-11-08T06:35:30.212Z,13.53
2022-11-08T06:38:01.364Z,13.85
2022-11-08T06:40:33.140Z,14.13
2022-11-08T06:43:02.633Z,13.53
2022-11-08T06:45:33.146Z,13.03
2022-11-08T06:48:03.979Z,12.90
2022-11-08T06:50:34.070Z,12.60
2022-11-08T06:53:07.070Z,14.03
2022-11-08T06:55:38.422Z,13.00
2022-11-08T06:58:07.252Z,12.95
2022-11-08T07:00:36.971Z,12.25
2022-11-08T07:03:06.914Z,12.68
2022-11-08T07:05:37.383Z,12.82
2022-11-08T07:08:06.714Z,13.13
2022-11-08T07:10:36.633Z,14.20
2022-11-08T07:13:10.292Z,13.08
2022-11-08T07:15:41.463Z,13.08
2022-11-08T07:18:13.124Z,14.28
2022-11-08T07:20:43.349Z,13.58
2022-11-08T07:23:13.147Z,12.90
2022-11-08T07:25:46.620Z,14.15
2022-11-08T07:28:18.301Z,15.63
2022-11-08T07:30:48.422Z,14.10
2022-11-08T07:33:18.928Z,13.80
2022-11-08T07:35:49.919Z,13.55
2022-11-08T07:38:19.985Z,13.68
2022-11-08T07:40:51.715Z,14.23
2022-11-08T07:43:21.264Z,13.83
2022-11-08T07:45:56.505Z,14.20
2022-11-08T07:48:25.630Z,15.00
2022-11-08T07:50:55.081Z,14.60
2022-11-08T07:53:24.584Z,15.25
2022-11-08T07:55:55.010Z,18.70
2022-11-08T07:58:24.513Z,16.23
2022-11-08T08:00:53.965Z,15.72
2022-11-08T08:03:23.658Z,16.15
2022-11-08T08:05:59.483Z,16.02
2022-11-08T08:08:26.121Z,16.17
2022-11-08T08:11:02.527Z,15.55
2022-11-08T08:13:32.519Z,15.65
2022-11-08T08:16:02.527Z,14.45
2022-11-08T08:18:33.065Z,15.75
2022-11-08T08:21:02.248Z,15.75
2022-11-08T08:23:33.061Z,15.10
2022-11-08T08:26:03.162Z,16.05
2022-11-08T08:28:31.856Z,15.80
2022-11-08T08:31:01.426Z,16.60
2022-11-08T08:33:30.811Z,15.50
2022-11-08T08:36:01.621Z,15.00
2022-11-08T08:38:32.493Z,15.63
2022-11-08T08:41:01.699Z,18.02
2022-11-08T08:43:34.118Z,16.73
2022-11-08T08:46:05.260Z,17.15
2022-11-08T08:48:35.715Z,16.62
2022-11-08T08:51:04.915Z,17.60
2022-11-08T08:53:34.168Z,17.52
2022-11-08T08:56:07.299Z,19.80
2022-11-08T08:58:40.582Z,26.65
2022-11-08T09:03:45.158Z,17.82
2022-11-08T09:06:14.322Z,16.35
2022-11-08T09:08:44.552Z,16.05
2022-11-08T09:11:13.174Z,16.80
2022-11-08T09:13:42.332Z,15.80
2022-11-08T09:16:13.220Z,17.15
2022-11-08T09:18:41.854Z,16.65
2022-11-08T09:21:12.309Z,17.17
2022-11-08T09:23:42.147Z,18.02
2022-11-08T09:26:12.199Z,17.70
2022-11-08T09:28:41.025Z,17.67
2022-11-08T09:31:11.552Z,18.10
2022-11-08T09:33:41.698Z,17.98
2022-11-08T09:36:13.421Z,19.07
2022-11-08T09:38:42.590Z,19.98
2022-11-08T09:41:31.083Z,18.50
2022-11-08T09:44:23.014Z,18.82
2022-11-08T09:47:15.149Z,19.48
2022-11-08T09:50:24.680Z,19.05
2022-11-08T09:53:19.349Z,17.50
2022-11-08T09:56:15.422Z,19.40
2022-11-08T09:58:49.563Z,21.87
2022-11-08T10:01:19.558Z,19.57
2022-11-08T10:03:51.740Z,19.25
2022-11-08T10:07:03.209Z,19.75
2022-11-08T10:09:56.474Z,20.12
2022-11-08T10:12:43.852Z,20.45
2022-11-08T10:15:22.160Z,18.77
2022-11-08T10:18:20.487Z,21.05
2022-11-08T10:21:04.679Z,19.92
2022-11-08T10:23:44.500Z,24.85
2022-11-08T10:26:25.732Z,20.80
2022-11-08T10:29:08.521Z,21.62
2022-11-08T10:31:38.288Z,21.93
2022-11-08T10:34:15.412Z,25.32
2022-11-08T10:36:49.144Z,22.60
2022-11-08T10:39:27.808Z,22.00
2022-11-08T10:42:04.339Z,19.37
2022-11-08T10:44:34.908Z,19.82
2022-11-08T10:47:06.484Z,19.20
2022-11-08T10:49:38.948Z,21.00
2022-11-08T10:52:21.671Z,19.45
2022-11-08T10:55:01.179Z,19.05
2022-11-08T10:57:47.941Z,20.35
2022-11-08T11:00:29.691Z,21.07
2022-11-08T11:03:08.371Z,22.07
2022-11-08T11:05:44.408Z,26.23
2022-11-08T11:08:15.396Z,21.77
2022-11-08T11:10:46.618Z,30.55
2022-11-08T11:16:04.138Z,37.05
2022-11-08T11:18:48.159Z,30.40
2022-11-08T11:21:22.712Z,28.90
2022-11-08T11:24:00.190Z,24.90
2022-11-08T11:26:34.148Z,21.48
2022-11-08T11:29:17.157Z,23.42
2022-11-08T11:31:49.298Z,23.30
2022-11-08T11:34:23.373Z,25.32
2022-11-08T11:37:13.393Z,28.15
2022-11-08T11:40:12.273Z,24.72
2022-11-08T11:43:12.382Z,23.35
2022-11-08T11:46:00.503Z,22.67
2022-11-08T11:48:32.153Z,24.40
2022-11-08T11:51:03.567Z,24.07
2022-11-08T11:53:40.243Z,24.18
2022-11-08T11:59:46.407Z,23.70
2022-11-08T12:02:51.328Z,21.95
2022-11-08T12:06:05.803Z,20.82
2022-11-08T12:09:02.288Z,20.82
2022-11-08T12:11:39.202Z,20.90
2022-11-08T12:14:45.051Z,19.48
2022-11-08T12:17:53.110Z,20.08
2022-11-08T12:20:55.402Z,19.23
2022-11-08T12:23:53.929Z,19.05
2022-11-08T12:26:58.445Z,20.85
2022-11-08T12:29:47.700Z,21.23
2022-11-08T12:32:24.867Z,19.62
2022-11-08T12:35:00.210Z,19.73
2022-11-08T12:37:55.629Z,20.37
2022-11-08T12:40:46.729Z,24.85
2022-11-08T12:43:38.773Z,19.90
2022-11-08T12:46:18.332Z,20.08
2022-11-08T12:49:10.192Z,20.35
2022-11-08T12:51:52.972Z,21.85
2022-11-08T12:54:41.576Z,20.60
2022-11-08T12:57:13.345Z,20.25
2022-11-08T13:00:09.917Z,20.97
2022-11-08T13:02:42.327Z,21.37
2022-11-08T13:05:30.790Z,21.12
2022-11-08T13:08:16.814Z,20.50
2022-11-08T13:10:52.062Z,20.57
2022-11-08T13:13:52.742Z,21.40
2022-11-08T13:16:28.450Z,20.55
2022-11-08T13:18:58.570Z,21.80
2022-11-08T13:21:44.855Z,19.82
2022-11-08T13:31:02.651Z,19.37
2022-11-08T13:33:32.389Z,19.50
2022-11-08T13:36:30.059Z,19.82
2022-11-08T13:39:30.560Z,19.98
2022-11-08T13:42:26.722Z,20.62
2022-11-08T13:55:59.704Z,23.18
2022-11-08T13:58:35.875Z,24.52
2022-11-08T14:01:09.360Z,22.02
2022-11-08T14:03:55.347Z,21.82
2022-11-08T14:06:56.040Z,23.00
2022-11-08T14:09:57.044Z,22.05
2022-11-08T14:12:57.974Z,22.02
2022-11-08T14:15:37.964Z,22.40
2022-11-08T14:18:30.835Z,21.25
2022-11-08T14:21:08.537Z,21.05
2022-11-08T14:23:48.447Z,21.50
2022-11-08T14:26:23.106Z,21.68
2022-11-08T14:28:54.410Z,20.85
2022-11-08T14:31:33.125Z,20.05
2022-11-08T14:34:02.707Z,19.95
2022-11-08T14:36:32.873Z,20.23
2022-11-08T14:39:17.783Z,20.40
2022-11-08T14:41:48.833Z,19.77
2022-11-08T14:44:19.858Z,19.62
2022-11-08T14:46:49.397Z,19.90
2022-11-08T14:49:36.314Z,19.27
2022-11-08T14:54:46.717Z,20.97
2022-11-08T14:57:38.244Z,20.85
2022-11-08T15:00:20.848Z,21.40
2022-11-08T15:03:06.984Z,20.17
2022-11-08T15:05:47.455Z,21.30
2022-11-08T15:08:34.613Z,21.30
2022-11-08T15:11:07.944Z,21.20
2022-11-08T15:13:48.540Z,21.70
2022-11-08T15:16:18.616Z,21.85
2022-11-08T15:18:47.960Z,23.12
2022-11-08T15:21:58.160Z,22.77
2022-11-08T15:24:46.958Z,22.98
2022-11-08T15:27:25.337Z,22.77
2022-11-08T15:30:13.655Z,22.27
2022-11-08T15:32:45.708Z,24.87
2022-11-08T15:35:34.198Z,23.87
2022-11-08T15:38:09.576Z,24.72
2022-11-08T15:40:45.048Z,24.65
2022-11-08T15:43:35.094Z,26.12
2022-11-08T15:46:05.878Z,27.55
2022-11-08T15:48:41.809Z,28.20
2022-11-08T15:51:17.043Z,27.65
2022-11-08T15:53:48.850Z,29.07
2022-11-08T15:56:17.744Z,29.05
2022-11-08T15:58:47.083Z,27.62
2022-11-08T16:01:20.601Z,28.50
2022-11-08T16:03:49.943Z,29.05
2022-11-08T16:06:20.336Z,30.52
2022-11-08T16:08:49.334Z,28.02
2022-11-08T16:11:34.154Z,27.73
2022-11-08T16:14:19.860Z,33.48
2022-11-08T16:16:49.900Z,29.18
2022-11-08T16:19:23.350Z,28.20
2022-11-08T16:21:53.287Z,29.85
2022-11-08T16:24:35.020Z,30.25
2022-11-08T16:27:11.831Z,30.23
2022-11-08T16:29:42.717Z,30.35
2022-11-08T16:32:26.268Z,30.80
2022-11-08T16:35:13.652Z,30.08
2022-11-08T16:37:46.095Z,29.63
2022-11-08T16:40:36.177Z,28.77
2022-11-08T16:43:16.398Z,28.45
2022-11-08T16:48:18.622Z,28.75
2022-11-08T16:50:47.973Z,29.42
2022-11-08T16:53:19.341Z,27.98
2022-11-08T16:55:48.102Z,29.25
2022-11-08T16:58:17.179Z,31.10
2022-11-08T17:00:46.264Z,29.63
2022-11-08T17:03:21.255Z,29.67
2022-11-08T17:05:50.795Z,29.12
2022-11-08T17:08:20.812Z,31.20
2022-11-08T17:10:50.142Z,32.13
2022-11-08T17:13:21.265Z,30.90
2022-11-08T17:15:51.098Z,30.50
2022-11-08T17:18:21.556Z,29.63
2022-11-08T17:20:53.608Z,32.78
2022-11-08T17:23:23.464Z,37.00
2022-11-08T17:25:52.584Z,39.65
2022-11-08T17:28:21.669Z,39.10
2022-11-08T17:30:51.285Z,36.88
2022-11-08T17:33:20.747Z,36.55
2022-11-08T17:35:50.380Z,37.98
2022-11-08T17:38:20.491Z,37.67
2022-11-08T17:40:50.292Z,38.33
2022-11-08T17:43:20.786Z,39.05
2022-11-08T17:45:51.658Z,36.45
2022-11-08T17:48:20.273Z,35.48
2022-11-08T17:50:48.874Z,36.50
2022-11-08T17:53:18.025Z,38.30
2022-11-08T17:56:01.065Z,37.88
2022-11-08T17:58:32.499Z,35.70
2022-11-08T18:01:04.893Z,36.60
2022-11-08T18:03:35.412Z,37.00
2022-11-08T18:06:09.607Z,39.73
2022-11-08T18:08:38.149Z,39.80
2022-11-08T18:11:08.454Z,39.95
2022-11-08T18:13:38.054Z,38.98
2022-11-08T18:16:14.534Z,38.58
2022-11-08T18:18:46.833Z,40.95
2022-11-08T18:21:17.292Z,43.33
2022-11-08T18:23:47.588Z,43.85
2022-11-08T18:26:17.156Z,43.15
2022-11-08T18:28:45.744Z,42.13
2022-11-08T18:31:17.136Z,41.15
2022-11-08T18:33:47.318Z,43.23
2022-11-08T18:36:21.496Z,40.85
2022-11-08T18:38:52.073Z,40.40
2022-11-08T18:41:24.954Z,38.10
2022-11-08T18:43:54.142Z,39.88
2022-11-08T18:46:24.889Z,40.30
2022-11-08T18:48:54.062Z,43.35
2022-11-08T18:51:23.901Z,42.00
2022-11-08T18:53:53.061Z,42.33
2022-11-08T18:56:22.793Z,41.25
2022-11-08T18:58:51.517Z,40.28
2022-11-08T19:01:20.478Z,43.25
2022-11-08T19:03:49.397Z,45.45
2022-11-08T19:06:20.506Z,44.83
2022-11-08T19:08:49.228Z,45.33
2022-11-08T19:11:19.905Z,43.50
2022-11-08T19:13:49.953Z,46.20
2022-11-08T19:16:19.864Z,48.58
2022-11-08T19:18:51.596Z,50.63
2022-11-08T19:21:23.859Z,49.42
2022-11-08T19:23:55.111Z,49.00
2022-11-08T19:26:25.219Z,49.03
2022-11-08T19:28:54.813Z,45.65
2022-11-08T19:31:24.749Z,48.10
2022-11-08T19:33:53.960Z,51.70
2022-11-08T19:36:25.048Z,52.05
2022-11-08T19:38:55.132Z,49.35
2022-11-08T19:41:26.867Z,45.67
2022-11-08T19:43:56.678Z,48.92
2022-11-08T19:46:29.378Z,49.48
2022-11-08T19:49:00.410Z,50.03
2022-11-08T19:51:33.031Z,48.55
2022-11-08T19:54:07.740Z,47.35
2022-11-08T19:57:03.680Z,50.55
2022-11-08T19:59:08.720Z,50.23
2022-11-08T20:01:39.596Z,49.25
2022-11-08T20:04:10.617Z,51.60
2022-11-08T20:06:40.181Z,50.43
2022-11-08T20:09:09.648Z,48.70
2022-11-08T20:11:43.019Z,48.40
2022-11-08T20:14:13.132Z,50.20
2022-11-08T20:16:43.214Z,50.90
2022-11-08T20:19:16.248Z,48.92
2022-11-08T20:21:45.907Z,46.45
2022-11-08T20:24:15.054Z,45.83
2022-11-08T20:26:45.524Z,45.25
2022-11-08T20:29:14.516Z,45.95
2022-11-08T20:31:44.921Z,44.33
2022-11-08T20:34:13.871Z,44.77
2022-11-08T20:36:45.124Z,45.23
2022-11-08T20:39:15.307Z,44.90
2022-11-08T20:41:45.071Z,47.33
2022-11-08T20:44:14.916Z,46.15
2022-11-08T20:46:44.177Z,49.65
2022-11-08T20:49:13.491Z,47.70
2022-11-08T20:51:42.373Z,48.35
2022-11-08T20:54:11.798Z,48.92
2022-11-08T20:56:42.521Z,48.98
2022-11-08T20:59:12.137Z,48.48
2022-11-08T21:01:42.235Z,46.63
2022-11-08T21:04:11.057Z,47.03
2022-11-08T21:06:41.305Z,48.08
2022-11-08T21:09:34.437Z,51.02
2022-11-08T21:11:43.911Z,53.48
2022-11-08T21:14:12.790Z,52.27
2022-11-08T21:17:14.735Z,52.03
2022-11-08T21:19:16.966Z,49.25
2022-11-08T21:21:48.448Z,48.95
2022-11-08T21:24:19.072Z,48.75
2022-11-08T21:26:48.400Z,50.45
2022-11-08T21:29:17.314Z,47.10
2022-11-08T21:31:47.274Z,45.70
2022-11-08T21:34:16.897Z,42.93
2022-11-08T21:36:45.629Z,43.95
2022-11-08T21:39:14.253Z,43.80
2022-11-08T21:41:43.581Z,46.40
2022-11-08T21:44:12.060Z,45.78
2022-11-08T21:46:40.681Z,44.55
2022-11-08T21:49:12.099Z,45.73
2022-11-08T21:51:40.765Z,48.05
2022-11-08T21:54:10.716Z,60.95
2022-11-08T21:56:39.524Z,68.05
2022-11-08T21:59:10.887Z,64.30
2022-11-08T22:01:39.679Z,62.88
2022-11-08T22:04:08.659Z,65.60
2022-11-08T22:06:41.436Z,65.28
2022-11-08T22:09:10.277Z,59.20
2022-11-08T22:11:39.333Z,58.15
2022-11-08T22:14:09.867Z,57.40
2022-11-08T22:16:40.555Z,48.75
2022-11-08T22:19:11.602Z,46.58
2022-11-08T22:21:42.921Z,41.98
2022-11-08T22:24:17.495Z,45.50
2022-11-08T22:26:47.810Z,43.68
2022-11-08T22:29:18.314Z,43.68
2022-11-08T22:31:47.601Z,41.13
2022-11-08T22:34:17.783Z,39.95
2022-11-08T22:36:47.658Z,38.80
2022-11-08T22:39:20.411Z,42.20
2022-11-08T22:41:51.632Z,41.05
2022-11-08T22:44:22.204Z,34.27
2022-11-08T22:46:50.958Z,31.95
2022-11-08T22:49:19.660Z,31.68
2022-11-08T22:51:48.632Z,30.65
2022-11-08T22:54:17.182Z,31.55
2022-11-08T22:56:45.972Z,30.40
2022-11-08T22:59:14.694Z,31.55
2022-11-08T23:01:43.251Z,33.92
2022-11-08T23:04:12.042Z,33.83
2022-11-08T23:06:42.401Z,35.55
2022-11-08T23:09:11.206Z,36.42
2022-11-08T23:11:58.201Z,38.33
2022-11-08T23:14:45.157Z,26.33
2022-11-08T23:17:14.183Z,29.05
2022-11-08T23:20:01.392Z,28.60
2022-11-08T23:22:51.821Z,28.25
2022-11-08T23:25:20.803Z,29.25
2022-11-08T23:28:09.652Z,26.62
2022-11-08T23:30:58.774Z,22.98
2022-11-08T23:36:11.126Z,24.10
2022-11-08T23:38:41.274Z,25.50
2022-11-08T23:41:29.044Z,24.10
2022-11-08T23:44:18.346Z,22.87
2022-11-08T23:46:47.312Z,22.37
2022-11-08T23:49:16.143Z,24.85
2022-11-08T23:51:45.240Z,24.67
2022-11-08T23:54:15.346Z,23.83
2022-11-08T23:56:44.695Z,23.57
2022-11-08T23:59:15.670Z,24.52
